Time;durP1;ratioP1;P1;durP2;ratioP2;P2;SDS_P1;SDS_P2;PMS_P1;PMS_P2;Temp;Humidity;BMP_temperature;BMP_pressure;BME280_temperature;BME280_humidity;BME280_pressure;Samples;Min_cycle;Max_cycle;Signal;HPM_P1;HPM_P2
2022/06/04 00:04:07;;;;;;;;;;;;;;;-145.66;100.00;59599.19;10376716;28;19959;-57
2022/06/04 00:09:10;;;;;;;;;;;;;;;-145.66;100.00;59599.19;10376299;28;19928;-57
2022/06/04 00:19:34;;;;;;;;;;;;;;;-145.66;100.00;59599.19;10375172;28;20387;-57
2022/06/04 00:24:36;;;;;;;;;;;;;;;-145.66;100.00;59599.19;10375423;28;20372;-57
2022/06/04 00:29:38;;;;;;;;;;;;;;;-145.66;100.00;59599.19;10375092;28;19921;-57
2022/06/04 00:34:40;;;;;;;;;;;;;;;-145.66;100.00;59599.19;10375421;28;19921;-57
2022/06/04 00:39:45;;;;;;;;;;;;;;;-145.66;100.00;59599.19;10374801;28;19929;-57
2022/06/04 00:44:59;;;;;;;;;;;;;;;-145.66;100.00;59599.19;10374932;28;19921;-57
2022/06/04 00:50:02;;;;;;;;;;;;;;;-145.66;100.00;59599.19;10374785;28;19921;-57
2022/06/04 00:55:04;;;;;;;;;;;;;;;-145.66;100.00;59599.19;10374499;28;19921;-57
2022/06/04 01:00:19;;;;;;;;;;;;;;;-145.66;100.00;59599.19;10373854;28;19929;-57
2022/06/04 01:05:40;;;;;;;;;;;;;;;-145.66;100.00;59599.19;10375103;28;19922;-58
2022/06/04 01:11:01;;;;;;;;;;;;;;;-145.66;100.00;59599.19;10374978;28;19929;-57
2022/06/04 01:16:04;;;;;;;;;;;;;;;-145.66;100.00;59599.19;10372827;28;19921;-57
2022/06/04 01:21:25;;;;;;;;;;;;;;;-145.66;100.00;59599.19;10374686;28;19922;-57
2022/06/04 01:26:27;;;;;;;;;;;;;;;-145.66;100.00;59599.19;10374662;28;19929;-57
2022/06/04 01:31:35;;;;;;;;;;;;;;;-145.66;100.00;59599.19;10373654;28;19929;-57
2022/06/04 01:36:39;;;;;;;;;;;;;;;-145.66;100.00;59599.19;10373037;28;19989;-57
2022/06/04 01:42:02;;;;;;;;;;;;;;;-145.66;100.00;59599.19;10373200;28;19929;-57
2022/06/04 01:47:05;;;;;;;;;;;;;;;-145.66;100.00;59599.19;10374042;28;20290;-56
2022/06/04 01:52:12;;;;;;;;;;;;;;;-145.66;100.00;59599.19;10377832;28;20365;-57
2022/06/04 01:57:25;;;;;;;;;;;;;;;-145.66;100.00;59599.19;10379554;28;19925;-57
2022/06/04 02:02:33;;;;;;;;;;;;;;;-145.66;100.00;59599.19;10379305;28;20253;-57
2022/06/04 02:07:36;;;;;;;;;;;;;;;-145.66;100.00;59599.19;10379402;28;19925;-57
2022/06/04 02:12:39;;;;;;;;;;;;;;;-145.66;100.00;59599.19;10379623;28;19921;-57
2022/06/04 02:17:42;;;;;;;;;;;;;;;-145.66;100.00;59599.19;10379898;28;20283;-56
2022/06/04 02:22:44;;;;;;;;;;;;;;;-145.66;100.00;59599.19;10379375;28;19927;-57
2022/06/04 02:27:47;;;;;;;;;;;;;;;-145.66;100.00;59599.19;10378995;28;19921;-57
2022/06/04 02:32:49;;;;;;;;;;;;;;;-145.66;100.00;59599.19;10378913;28;19921;-57
2022/06/04 02:37:52;;;;;;;;;;;;;;;-145.66;100.00;59599.19;10379737;28;19921;-56
2022/06/04 02:42:54;;;;;;;;;;;;;;;-145.66;100.00;59599.19;10416573;22;19920;-57
2022/06/04 02:48:00;;;;;;;;;;;;;;;-145.66;100.00;59599.19;10461001;28;20320;-57
2022/06/04 02:53:02;;;;;;;;;;;;;;;-145.66;100.00;59599.19;10461632;28;19921;-57
2022/06/04 02:58:12;;;;;;;;;;;;;;;-145.66;100.00;59599.19;10443539;28;19921;-57
2022/06/04 03:03:20;;;;;;;;;;;;;;;-145.66;100.00;59599.19;10427235;28;20015;-57
2022/06/04 03:08:22;;;;;;;;;;;;;;;-145.66;100.00;59599.19;10442755;28;20326;-57
2022/06/04 03:13:25;;;;;;;;;;;;;;;-145.66;100.00;59599.19;10443224;28;19920;-57
2022/06/04 03:18:27;;;;;;;;;;;;;;;-145.66;100.00;59599.19;10460267;28;19921;-56
2022/06/04 03:23:29;;;;;;;;;;;;;;;-145.66;100.00;59599.19;10459454;28;20371;-57
2022/06/04 03:28:32;;;;;;;;;;;;;;;-145.66;100.00;59599.19;10459574;28;20382;-57
2022/06/04 03:33:34;;;;;;;;;;;;;;;-145.66;100.00;59599.19;10459971;28;19921;-57
2022/06/04 03:38:36;;;;;;;;;;;;;;;-145.66;100.00;59599.19;10459530;28;19921;-57
2022/06/04 03:43:38;;;;;;;;;;;;;;;-145.66;100.00;59599.19;10458983;28;19921;-58
2022/06/04 03:48:41;;;;;;;;;;;;;;;-145.66;100.00;59599.19;10458711;28;19920;-57
2022/06/04 03:53:43;;;;;;;;;;;;;;;-145.66;100.00;59599.19;10458828;28;19921;-57
2022/06/04 03:58:45;;;;;;;;;;;;;;;-145.66;100.00;59599.19;10458676;28;19928;-57
2022/06/04 04:03:48;;;;;;;;;;;;;;;-145.66;100.00;59599.19;10458732;28;19928;-57
2022/06/04 04:08:51;;;;;;;;;;;;;;;-145.66;100.00;59599.19;10440974;28;19928;-57
2022/06/04 04:13:54;;;;;;;;;;;;;;;-145.66;100.00;59599.19;10439257;28;20359;-57
2022/06/04 04:18:56;;;;;;;;;;;;;;;-145.66;100.00;59599.19;10457420;28;19931;-58
2022/06/04 04:23:58;;;;;;;;;;;;;;;-145.66;100.00;59599.19;10439539;28;20322;-57
2022/06/04 04:29:00;;;;;;;;;;;;;;;-145.66;100.00;59599.19;10457374;28;19927;-57
2022/06/04 04:34:03;;;;;;;;;;;;;;;-145.66;100.00;59599.19;10439540;28;20263;-57
2022/06/04 04:39:05;;;;;;;;;;;;;;;-145.66;100.00;59599.19;10456788;28;20295;-57
2022/06/04 04:44:07;;;;;;;;;;;;;;;-145.66;100.00;59599.19;10456735;28;19921;-57
2022/06/04 04:49:11;;;;;;;;;;;;;;;-145.66;100.00;59599.19;10456800;28;19920;-57
2022/06/04 04:54:13;;;;;;;;;;;;;;;-145.66;100.00;59599.19;10457138;28;19927;-58
2022/06/04 04:59:15;;;;;;;;;;;;;;;-145.66;100.00;59599.19;10456338;28;20398;-57
2022/06/04 05:04:18;;;;;;;;;;;;;;;-145.66;100.00;59599.19;10456433;28;20351;-58
2022/06/04 05:09:20;;;;;;;;;;;;;;;-145.66;100.00;59599.19;10457103;28;19927;-57
2022/06/04 05:14:22;;;;;;;;;;;;;;;-145.66;100.00;59599.19;10439070;28;19921;-57
2022/06/04 05:19:25;;;;;;;;;;;;;;;-145.66;100.00;59599.19;10438890;28;19921;-58
2022/06/04 05:24:28;;;;;;;;;;;;;;;-145.66;100.00;59599.19;10459467;28;20368;-57
2022/06/04 05:29:36;;;;;;;;;;;;;;;-145.66;100.00;59599.19;10446380;28;19943;-57
2022/06/04 05:34:38;;;;;;;;;;;;;;;-145.66;100.00;59599.19;10464671;28;19920;-57
2022/06/04 05:39:40;;;;;;;;;;;;;;;-145.66;100.00;59599.19;10463642;28;19928;-57
2022/06/04 05:44:42;;;;;;;;;;;;;;;-145.66;100.00;59599.19;10463404;28;19920;-57
2022/06/04 05:49:45;;;;;;;;;;;;;;;-145.66;100.00;59599.19;10445420;28;19921;-57
2022/06/04 05:54:47;;;;;;;;;;;;;;;-145.66;100.00;59599.19;10462588;28;19924;-57
2022/06/04 05:59:49;;;;;;;;;;;;;;;-145.66;100.00;59599.19;10427363;28;20277;-58
2022/06/04 06:04:51;;;;;;;;;;;;;;;-145.66;100.00;59599.19;10463434;28;19921;-58
2022/06/04 06:09:53;;;;;;;;;;;;;;;-145.66;100.00;59599.19;10462981;28;19928;-57
2022/06/04 06:14:56;;;;;;;;;;;;;;;-145.66;100.00;59599.19;10445096;28;19927;-58
2022/06/04 06:19:58;;;;;;;;;;;;;;;-145.66;100.00;59599.19;10462593;28;19920;-58
2022/06/04 06:25:04;;;;;;;;;;;;;;;-145.66;100.00;59599.19;10461712;28;20259;-58
2022/06/04 06:30:06;;;;;;;;;;;;;;;-145.66;100.00;59599.19;10463107;28;19927;-58
2022/06/04 06:35:09;;;;;;;;;;;;;;;-145.66;100.00;59599.19;10461256;28;19934;-58
2022/06/04 06:40:11;;;;;;;;;;;;;;;-145.66;100.00;59599.19;10462072;28;19927;-58
2022/06/04 06:45:14;;;;;;;;;;;;;;;-145.66;100.00;59599.19;10442903;28;19920;-58
2022/06/04 06:50:16;;;;;;;;;;;;;;;-145.66;100.00;59599.19;10461188;28;20282;-59
2022/06/04 06:55:18;;;;;;;;;;;;;;;-145.66;100.00;59599.19;10461118;28;19927;-57
2022/06/04 07:00:21;;;;;;;;;;;;;;;-145.66;100.00;59599.19;10443413;28;19927;-60
2022/06/04 07:05:23;;;;;;;;;;;;;;;-145.66;100.00;59599.19;10460322;28;19920;-60
2022/06/04 07:10:25;;;;;;;;;;;;;;;-145.66;100.00;59599.19;10441862;28;19939;-59
2022/06/04 07:15:27;;;;;;;;;;;;;;;-145.66;100.00;59599.19;10439805;28;19932;-60
2022/06/04 07:20:29;;;;;;;;;;;;;;;-145.66;100.00;59599.19;10449386;28;19925;-60
2022/06/04 07:25:32;;;;;;;;;;;;;;;-145.66;100.00;59599.19;10460078;28;19921;-57
2022/06/04 07:30:34;;;;;;;;;;;;;;;-145.66;100.00;59599.19;10459857;28;19927;-57
2022/06/04 07:35:36;;;;;;;;;;;;;;;-145.66;100.00;59599.19;10456809;28;20364;-57
2022/06/04 07:40:39;;;;;;;;;;;;;;;-145.66;100.00;59599.19;10440827;28;19938;-57
2022/06/04 07:45:41;;;;;;;;;;;;;;;-145.66;100.00;59599.19;10457617;28;19920;-57
2022/06/04 07:50:43;;;;;;;;;;;;;;;-145.66;100.00;59599.19;10457358;28;19928;-57
2022/06/04 07:55:45;;;;;;;;;;;;;;;-145.66;100.00;59599.19;10457990;28;19921;-57
2022/06/04 08:01:06;;;;;;;;;;;;;;;-145.66;100.00;59599.19;10455429;28;20395;-57
2022/06/04 08:06:10;;;;;;;;;;;;;;;-145.66;100.00;59599.19;10432021;28;20291;-57
2022/06/04 08:16:34;;;;;;;;;;;;;;;-145.66;100.00;59599.19;10449754;28;20500;-57
2022/06/04 08:21:36;;;;;;;;;;;;;;;-145.66;100.00;59599.19;10448841;28;20301;-57
2022/06/04 08:26:42;;;;;;;;;;;;;;;-145.66;100.00;59599.19;10450581;28;19925;-57
2022/06/04 08:31:45;;;;;;;;;;;;;;;-145.66;100.00;59599.19;10426913;28;19920;-58
2022/06/04 08:36:47;;;;;;;;;;;;;;;-145.66;100.00;59599.19;10450272;28;20496;-58
2022/06/04 08:41:49;;;;;;;;;;;;;;;-145.66;100.00;59599.19;10450282;28;19931;-58
2022/06/04 08:47:07;;;;;;;;;;;;;;;-145.66;100.00;59599.19;10449235;28;20035;-58
2022/06/04 08:52:14;;;;;;;;;;;;;;;-145.66;100.00;59599.19;10449436;28;20275;-58
2022/06/04 08:57:32;;;;;;;;;;;;;;;-145.66;100.00;59599.19;10448745;28;19924;-57
2022/06/04 09:02:39;;;;;;;;;;;;;;;-145.66;100.00;59599.19;10462974;28;19928;-60
2022/06/04 09:07:45;;;;;;;;;;;;;;;-145.66;100.00;59599.19;10463155;28;19921;-58
2022/06/04 09:12:55;;;;;;;;;;;;;;;-145.66;100.00;59599.19;10445798;28;19924;-58
2022/06/04 09:17:58;;;;;;;;;;;;;;;-145.66;100.00;59599.19;10445261;28;19929;-57
2022/06/04 09:23:03;;;;;;;;;;;;;;;-145.66;100.00;59599.19;10462776;28;20435;-57
2022/06/04 09:28:13;;;;;;;;;;;;;;;-145.66;100.00;59599.19;10462969;28;19924;-57
2022/06/04 09:33:15;;;;;;;;;;;;;;;-145.66;100.00;59599.19;10444894;28;19927;-58
2022/06/04 09:38:22;;;;;;;;;;;;;;;-145.66;100.00;59599.19;10463330;28;20015;-58
2022/06/04 09:43:25;;;;;;;;;;;;;;;-145.66;100.00;59599.19;10462517;28;20372;-58
2022/06/04 09:48:43;;;;;;;;;;;;;;;-145.66;100.00;59599.19;10459700;28;19968;-57
2022/06/04 09:53:47;;;;;;;;;;;;;;;-145.66;100.00;59599.19;10444393;28;20279;-57
2022/06/04 09:58:50;;;;;;;;;;;;;;;-145.66;100.00;59599.19;10462834;28;19924;-61
2022/06/04 10:04:04;;;;;;;;;;;;;;;-145.66;100.00;59599.19;10462397;28;19929;-62
2022/06/04 10:14:37;;;;;;;;;;;;;;;-145.66;100.00;59599.19;10448321;28;19927;-61
2022/06/04 10:19:49;;;;;;;;;;;;;;;-145.66;100.00;59599.19;10444767;28;20367;-62
2022/06/04 10:24:52;;;;;;;;;;;;;;;-145.66;100.00;59599.19;10462204;28;20256;-62
2022/06/04 10:30:13;;;;;;;;;;;;;;;-145.66;100.00;59599.19;10462613;28;19928;-61
2022/06/04 10:35:18;;;;;;;;;;;;;;;-145.66;100.00;59599.19;10462415;28;19927;-62
2022/06/04 10:40:29;;;;;;;;;;;;;;;-145.66;100.00;59599.19;10462280;28;19928;-62
2022/06/04 10:45:37;;;;;;;;;;;;;;;-145.66;100.00;59599.19;10443636;28;19921;-62
2022/06/04 10:56:13;;;;;;;;;;;;;;;-145.66;100.00;59599.19;10461547;28;19974;-62
2022/06/04 11:01:16;;;;;;;;;;;;;;;-145.66;100.00;59599.19;10443649;28;19921;-61
2022/06/04 11:06:25;;;;;;;;;;;;;;;-145.66;100.00;59599.19;10460503;28;20291;-62
2022/06/04 11:11:38;;;;;;;;;;;;;;;-145.66;100.00;59599.19;10442502;28;19921;-62
2022/06/04 11:16:42;;;;;;;;;;;;;;;-145.66;100.00;59599.19;10442715;28;19928;-62
2022/06/04 11:21:56;;;;;;;;;;;;;;;-145.66;100.00;59599.19;10441250;28;20383;-62
2022/06/04 11:27:00;;;;;;;;;;;;;;;-145.66;100.00;59599.19;10441751;28;19924;-64
2022/06/04 11:32:15;;;;;;;;;;;;;;;-145.66;100.00;59599.19;10442708;28;19928;-62
2022/06/04 11:37:20;;;;;;;;;;;;;;;-145.66;100.00;59599.19;10442046;28;20387;-58
2022/06/04 11:42:26;;;;;;;;;;;;;;;-145.66;100.00;59599.19;10458954;28;19943;-59
2022/06/04 11:47:48;;;;;;;;;;;;;;;-145.66;100.00;59599.19;10459875;28;19931;-59
2022/06/04 11:52:53;;;;;;;;;;;;;;;-145.66;100.00;59599.19;10458478;28;19920;-58
2022/06/04 11:57:59;;;;;;;;;;;;;;;-145.66;100.00;59599.19;10458026;28;19921;-58
2022/06/04 12:03:19;;;;;;;;;;;;;;;-145.66;100.00;59599.19;10458319;28;20310;-61
2022/06/04 12:08:23;;;;;;;;;;;;;;;-145.66;100.00;59599.19;10458218;28;20322;-62
2022/06/04 12:13:25;;;;;;;;;;;;;;;-145.66;100.00;59599.19;10440419;28;20007;-61
2022/06/04 12:18:30;;;;;;;;;;;;;;;-145.66;100.00;59599.19;10458342;28;19925;-61
2022/06/04 12:28:54;;;;;;;;;;;;;;;-145.66;100.00;59599.19;10458120;28;19921;-61
2022/06/04 12:33:56;;;;;;;;;;;;;;;-145.66;100.00;59599.19;10438973;28;20368;-61
2022/06/04 12:39:17;;;;;;;;;;;;;;;-145.66;100.00;59599.19;10456395;28;20380;-61
2022/06/04 12:44:46;;;;;;;;;;;;;;;-145.66;100.00;59599.19;10457081;28;19927;-62
2022/06/04 12:49:54;;;;;;;;;;;;;;;-145.66;100.00;59599.19;10427093;28;19931;-62
2022/06/04 12:54:57;;;;;;;;;;;;;;;-145.66;100.00;59599.19;10456030;28;19928;-62
2022/06/04 13:00:17;;;;;;;;;;;;;;;-145.66;100.00;59599.19;10456167;28;19920;-63
2022/06/04 13:05:21;;;;;;;;;;;;;;;-145.66;100.00;59599.19;10456649;28;19928;-62
2022/06/04 13:10:28;;;;;;;;;;;;;;;-145.66;100.00;59599.19;10438964;28;19920;-63
2022/06/04 13:15:33;;;;;;;;;;;;;;;-145.66;100.00;59599.19;10439411;28;19921;-62
2022/06/04 13:20:37;;;;;;;;;;;;;;;-145.66;100.00;59599.19;10456013;28;20367;-62
2022/06/04 13:25:41;;;;;;;;;;;;;;;-145.66;100.00;59599.19;10438222;28;19921;-63
2022/06/04 13:30:49;;;;;;;;;;;;;;;-145.66;100.00;59599.19;10438210;28;20455;-63
2022/06/04 13:35:52;;;;;;;;;;;;;;;-145.66;100.00;59599.19;10455979;28;20382;-63
2022/06/04 13:41:17;;;;;;;;;;;;;;;-145.66;100.00;59599.19;10456215;28;19921;-63
2022/06/04 13:46:23;;;;;;;;;;;;;;;-145.66;100.00;59599.19;10452403;28;20015;-63
2022/06/04 13:51:26;;;;;;;;;;;;;;;-145.66;100.00;59599.19;10463394;28;20003;-63
2022/06/04 13:56:34;;;;;;;;;;;;;;;-145.66;100.00;59599.19;10463743;28;19925;-62
2022/06/04 14:01:41;;;;;;;;;;;;;;;-145.66;100.00;59599.19;10446057;28;19920;-62
2022/06/04 14:06:44;;;;;;;;;;;;;;;-145.66;100.00;59599.19;10462717;28;20436;-62
2022/06/04 14:11:46;;;;;;;;;;;;;;;-145.66;100.00;59599.19;10462634;28;20429;-62
2022/06/04 14:17:06;;;;;;;;;;;;;;;-145.66;100.00;59599.19;10463245;28;19948;-61
2022/06/04 14:22:13;;;;;;;;;;;;;;;-145.66;100.00;59599.19;10462946;28;19924;-62
2022/06/04 14:27:18;;;;;;;;;;;;;;;-145.66;100.00;59599.19;10444849;28;19920;-61
2022/06/04 14:32:26;;;;;;;;;;;;;;;-145.66;100.00;59599.19;10462200;28;19928;-62
2022/06/04 14:37:29;;;;;;;;;;;;;;;-145.66;100.00;59599.19;10462187;28;19924;-61
2022/06/04 14:42:31;;;;;;;;;;;;;;;-145.66;100.00;59599.19;10461202;28;20287;-61
2022/06/04 14:47:36;;;;;;;;;;;;;;;-145.66;100.00;59599.19;10461644;28;20271;-60
2022/06/04 14:52:38;;;;;;;;;;;;;;;-145.66;100.00;59599.19;10461284;28;19926;-60
2022/06/04 14:57:42;;;;;;;;;;;;;;;-145.66;100.00;59599.19;10474569;22;20373;-67
2022/06/04 15:02:44;;;;;;;;;;;;;;;-145.66;100.00;59599.19;10461043;28;19925;-69
2022/06/04 15:07:53;;;;;;;;;;;;;;;-145.66;100.00;59599.19;10461139;28;20294;-68
2022/06/04 15:13:15;;;;;;;;;;;;;;;-145.66;100.00;59599.19;10444334;28;19927;-68
2022/06/04 15:18:35;;;;;;;;;;;;;;;-145.66;100.00;59599.19;10442195;28;19920;-68
2022/06/04 15:23:55;;;;;;;;;;;;;;;-145.66;100.00;59599.19;10460490;28;19921;-68
2022/06/04 15:34:38;;;;;;;;;;;;;;;-145.66;100.00;59599.19;10443958;28;19928;-71
2022/06/04 15:40:00;;;;;;;;;;;;;;;-145.66;100.00;59599.19;10459459;28;19927;-72
2022/06/04 15:45:09;;;;;;;;;;;;;;;-145.66;100.00;59599.19;10458482;28;19921;-71
2022/06/04 15:55:55;;;;;;;;;;;;;;;-145.66;100.00;59599.19;10458729;28;20291;-71
2022/06/04 16:00:57;;;;;;;;;;;;;;;-145.66;100.00;59599.19;10458455;28;19943;-70
2022/06/04 16:06:04;;;;;;;;;;;;;;;-145.66;100.00;59599.19;10439741;28;20292;-71
2022/06/04 16:11:09;;;;;;;;;;;;;;;-145.66;100.00;59599.19;10439605;28;19944;-71
2022/06/04 16:16:24;;;;;;;;;;;;;;;-145.66;100.00;59599.19;10440957;28;19927;-71
2022/06/04 16:21:31;;;;;;;;;;;;;;;-145.66;100.00;59599.19;10458380;28;19921;-71
2022/06/04 16:26:49;;;;;;;;;;;;;;;-145.66;100.00;59599.19;10440436;28;19921;-71
2022/06/04 16:32:06;;;;;;;;;;;;;;;-145.66;100.00;59599.19;10457620;28;19931;-71
2022/06/04 16:37:08;;;;;;;;;;;;;;;-145.66;100.00;59599.19;10440351;28;19927;-73
2022/06/04 16:42:11;;;;;;;;;;;;;;;-145.66;100.00;59599.19;10439589;28;19928;-71
2022/06/04 16:47:32;;;;;;;;;;;;;;;-145.66;100.00;59599.19;10440091;28;19927;-71
2022/06/04 16:52:36;;;;;;;;;;;;;;;-145.66;100.00;59599.19;10457644;28;19932;-72
2022/06/04 16:57:39;;;;;;;;;;;;;;;-145.66;100.00;59599.19;10456682;28;19927;-71
2022/06/04 17:02:44;;;;;;;;;;;;;;;-145.66;100.00;59599.19;10457357;28;19920;-72
2022/06/04 17:07:52;;;;;;;;;;;;;;;-145.66;100.00;59599.19;10439024;28;19921;-72
2022/06/04 17:13:02;;;;;;;;;;;;;;;-145.66;100.00;59599.19;10457232;28;19925;-72
2022/06/04 17:18:07;;;;;;;;;;;;;;;-145.66;100.00;59599.19;10423120;28;20020;-71
2022/06/04 17:23:13;;;;;;;;;;;;;;;-145.66;100.00;59599.19;10464185;28;19921;-69
2022/06/04 17:28:34;;;;;;;;;;;;;;;-145.66;100.00;59599.19;10465307;28;19939;-69
2022/06/04 17:33:43;;;;;;;;;;;;;;;-145.66;100.00;59599.19;10465072;28;19952;-70
2022/06/04 17:38:49;;;;;;;;;;;;;;;-145.66;100.00;59599.19;10447660;28;19925;-70
2022/06/04 17:43:51;;;;;;;;;;;;;;;-145.66;100.00;59599.19;10447062;28;19927;-70
2022/06/04 17:48:53;;;;;;;;;;;;;;;-145.66;100.00;59599.19;10464472;28;19921;-70
2022/06/04 17:53:56;;;;;;;;;;;;;;;-145.66;100.00;59599.19;10464390;28;19924;-71
2022/06/04 17:58:58;;;;;;;;;;;;;;;-145.66;100.00;59599.19;10445678;28;20268;-69
2022/06/04 18:04:00;;;;;;;;;;;;;;;-145.66;100.00;59599.19;10463867;28;19921;-70
2022/06/04 18:09:03;;;;;;;;;;;;;;;-145.66;100.00;59599.19;10445444;28;20386;-70
2022/06/04 18:14:06;;;;;;;;;;;;;;;-145.66;100.00;59599.19;10445365;28;19924;-69
2022/06/04 18:19:08;;;;;;;;;;;;;;;-145.66;100.00;59599.19;10463281;28;19927;-71
2022/06/04 18:24:12;;;;;;;;;;;;;;;-145.66;100.00;59599.19;10462533;28;19921;-70
2022/06/04 18:29:14;;;;;;;;;;;;;;;-145.66;100.00;59599.19;10445162;28;19927;-70
2022/06/04 18:34:16;;;;;;;;;;;;;;;-145.66;100.00;59599.19;10461779;28;19955;-70
2022/06/04 18:39:18;;;;;;;;;;;;;;;-145.66;100.00;59599.19;10462547;28;19928;-69
2022/06/04 18:55:03;;;;;;;;;;;;;;;-145.66;100.00;59599.19;10461232;28;20287;-70
2022/06/04 19:00:06;;;;;;;;;;;;;;;-145.66;100.00;59599.19;10482638;28;19924;-70
2022/06/04 19:05:09;;;;;;;;;;;;;;;-145.66;100.00;59599.19;10502320;28;20275;-70
2022/06/04 19:15:49;;;;;;;;;;;;;;;-145.66;100.00;59599.19;10501992;28;19920;-69
2022/06/04 19:26:13;;;;;;;;;;;;;;;-145.66;100.00;59599.19;10419641;28;19927;-68
2022/06/04 19:31:15;;;;;;;;;;;;;;;-145.66;100.00;59599.19;10419111;28;19921;-68
2022/06/04 19:36:17;;;;;;;;;;;;;;;-145.66;100.00;59599.19;10418953;28;19920;-68
2022/06/04 19:41:20;;;;;;;;;;;;;;;-145.66;100.00;59599.19;10418890;28;19921;-68
2022/06/04 19:46:23;;;;;;;;;;;;;;;-145.66;100.00;59599.19;10418425;28;19921;-68
2022/06/04 19:51:25;;;;;;;;;;;;;;;-145.66;100.00;59599.19;10417781;28;19925;-68
2022/06/04 19:56:27;;;;;;;;;;;;;;;-145.66;100.00;59599.19;10420486;28;19944;-68
2022/06/04 20:01:30;;;;;;;;;;;;;;;-145.66;100.00;59599.19;10459255;28;19921;-68
2022/06/04 20:06:32;;;;;;;;;;;;;;;-145.66;100.00;59599.19;10459021;28;19925;-68
2022/06/04 20:11:34;;;;;;;;;;;;;;;-145.66;100.00;59599.19;10458196;28;19929;-67
2022/06/04 20:16:37;;;;;;;;;;;;;;;-145.66;100.00;59599.19;10458254;28;20364;-67
2022/06/04 20:21:39;;;;;;;;;;;;;;;-145.66;100.00;59599.19;10458191;28;19921;-67
2022/06/04 20:26:42;;;;;;;;;;;;;;;-145.66;100.00;59599.19;10492751;28;19943;-68
2022/06/04 20:31:46;;;;;;;;;;;;;;;-145.66;100.00;59599.19;10498730;28;20271;-67
2022/06/04 20:36:48;;;;;;;;;;;;;;;-145.66;100.00;59599.19;10478073;28;19947;-67
2022/06/04 20:41:51;;;;;;;;;;;;;;;-145.66;100.00;59599.19;10499260;28;19921;-67
2022/06/04 20:46:53;;;;;;;;;;;;;;;-145.66;100.00;59599.19;10499397;28;19927;-67
2022/06/04 20:51:55;;;;;;;;;;;;;;;-145.66;100.00;59599.19;10499157;28;19924;-67
2022/06/04 20:56:57;;;;;;;;;;;;;;;-145.66;100.00;59599.19;10497752;28;19920;-67
2022/06/04 21:02:01;;;;;;;;;;;;;;;-145.66;100.00;59599.19;10481222;28;19927;-67
2022/06/04 21:07:03;;;;;;;;;;;;;;;-145.66;100.00;59599.19;10480317;28;20370;-67
2022/06/04 21:12:06;;;;;;;;;;;;;;;-145.66;100.00;59599.19;10498167;28;19924;-67
2022/06/04 21:17:08;;;;;;;;;;;;;;;-145.66;100.00;59599.19;10497939;28;19920;-67
2022/06/04 21:22:11;;;;;;;;;;;;;;;-145.66;100.00;59599.19;10498542;28;19920;-67
2022/06/04 21:27:13;;;;;;;;;;;;;;;-145.66;100.00;59599.19;10497545;28;19921;-67
2022/06/04 21:32:16;;;;;;;;;;;;;;;-145.66;100.00;59599.19;10497998;28;19924;-67
2022/06/04 21:42:40;;;;;;;;;;;;;;;-145.66;100.00;59599.19;10498114;28;19920;-67
2022/06/04 21:47:43;;;;;;;;;;;;;;;-145.66;100.00;59599.19;10479568;28;20287;-67
2022/06/04 21:52:46;;;;;;;;;;;;;;;-145.66;100.00;59599.19;10497591;28;19924;-67
2022/06/04 21:57:48;;;;;;;;;;;;;;;-145.66;100.00;59599.19;10496756;28;19920;-67
2022/06/04 22:02:51;;;;;;;;;;;;;;;-145.66;100.00;59599.19;10496766;28;19920;-67
2022/06/04 22:07:53;;;;;;;;;;;;;;;-145.66;100.00;59599.19;10502631;28;19920;-67
2022/06/04 22:12:56;;;;;;;;;;;;;;;-145.66;100.00;59599.19;10486905;28;19924;-67
2022/06/04 22:17:58;;;;;;;;;;;;;;;-145.66;100.00;59599.19;10504645;28;19920;-67
2022/06/04 22:23:00;;;;;;;;;;;;;;;-145.66;100.00;59599.19;10486024;28;19921;-67
2022/06/04 22:28:02;;;;;;;;;;;;;;;-145.66;100.00;59599.19;10503733;28;19920;-66
2022/06/04 22:33:05;;;;;;;;;;;;;;;-145.66;100.00;59599.19;10502964;28;19921;-67
2022/06/04 22:38:11;;;;;;;;;;;;;;;-145.66;100.00;59599.19;10503445;28;19921;-67
2022/06/04 22:43:13;;;;;;;;;;;;;;;-145.66;100.00;59599.19;10485428;28;20282;-67
2022/06/04 22:48:16;;;;;;;;;;;;;;;-145.66;100.00;59599.19;10485055;28;19989;-67
2022/06/04 22:53:18;;;;;;;;;;;;;;;-145.66;100.00;59599.19;10502364;28;20294;-67
2022/06/04 22:58:21;;;;;;;;;;;;;;;-145.66;100.00;59599.19;10482494;28;20379;-67
2022/06/04 23:03:24;;;;;;;;;;;;;;;-145.66;100.00;59599.19;10503000;28;19927;-67
2022/06/04 23:08:26;;;;;;;;;;;;;;;-145.66;100.00;59599.19;10502641;28;19924;-67
2022/06/04 23:24:10;;;;;;;;;;;;;;;-145.66;100.00;59599.19;10502107;28;19920;-67
2022/06/04 23:29:12;;;;;;;;;;;;;;;-145.66;100.00;59599.19;10483679;28;20283;-67
2022/06/04 23:34:14;;;;;;;;;;;;;;;-145.66;100.00;59599.19;10483686;28;19931;-67
2022/06/04 23:39:17;;;;;;;;;;;;;;;-145.66;100.00;59599.19;10501321;28;19930;-67
2022/06/04 23:44:19;;;;;;;;;;;;;;;-145.66;100.00;59599.19;10500992;28;19986;-67
2022/06/04 23:49:21;;;;;;;;;;;;;;;-145.66;100.00;59599.19;10500445;28;20363;-67
2022/06/04 23:54:24;;;;;;;;;;;;;;;-145.66;100.00;59599.19;10482335;28;19927;-67
2022/06/04 23:59:27;;;;;;;;;;;;;;;-145.66;100.00;59599.19;10500083;28;20015;-67
